HND weather

Tokyo Haneda International Airport
Tokyo, Tōkyō Prefecture, Japan

Public forecast

Using degrees Celsius for public forecast. Weather courtesy of forecast.io.

METAR (pilot weather report)

Retrieved 2019/03/19 18:00 UTC (1 hour ago):

RJTT 191800Z 36012KT CAVOK 12/04 Q1016 NOSIG RMK A3000

TAF (pilot weather forecast)

Forecast is more than 6 hours old.

Retrieved 2019/03/19 12:30 UTC (7 hours ago):

TAF RJTT 191105Z 1912/2018 30005KT 9999 FEW030 BECMG 1913/1915 36010KT BECMG 2003/2006 07004KT BECMG 2006/2009 18012KT